Phillips, NE

5:59 PM CDT on May 06, 2015 (GMT -0500)
York Municipal | | Change Station
CLOSE
Current Station
Airport
Location: York,
Elevation: 1670 ft
Nearby Weather Stations
Active Advisory: Tornado Watch

Elev 1670 ft 40.90 °N, 97.62 °W | Updated 24 minutes ago

Thunderstorm
Thunderstorm
64 °F
Feels Like 64 °F
N
15
Wind Variable Wind from SSE

Today
High -- | Low -- °F
--% Chance of Precip.
Yesterday
High -- | Low -- °F
Precip. -- in
6:25 AM 8:34 PM
Waning Gibbous, 92% visible
Pressure 29.69 in
Visibility 3.0 miles
Clouds Few 300 ft
Few 2700 ft
Scattered Clouds 3400 ft
Dew Point 63 °F
Humidity 94%
Rainfall 0.51 in
Snow Depth Not available.
UV 3 out of 12
Pollen 8.20 out of 12
Air Quality Not available.
Flu Activity Local Activity
METAR KJYR 062235Z AUTO 16013KT 3SM -TSRA FEW003 FEW027 SCT034 18/17 A2969 RMK AO2 LTG DSNT ALQDS P0008

More Conditions Fewer Conditions

Pressure 29.69 in
Visibility 3.0 miles
Clouds Few 300 ft
Few 2700 ft
Scattered Clouds 3400 ft
Dew Point 63 °F
Humidity 94%
Rainfall 0.51 in
Snow Depth Not available.
UV 3 out of 12
Pollen 8.20 out of 12
Air Quality Not available.
Flu Activity Local Activity
METAR KJYR 062235Z AUTO 16013KT 3SM -TSRA FEW003 FEW027 SCT034 18/17 A2969 RMK AO2 LTG DSNT ALQDS P0008

More Conditions Fewer Conditions

The Storm Prediction Center has issued an enhanced risk of severe weather for parts of central Texas, Oklahoma, Kansas, and southern Nebraska. Severe thunderstorms are developing throughout the area, producing tornadoes, heavy rain, and large hail. Tornadoes will be possible into the evening.

10-Day Weather Forecast

Almanac

Astronomy

May. 06, 2015 Rise Set
Actual Time
Civil Twilight
Nautical Twilight
Astronomical Twilight
Moon
Length of Visible Light
Length of Day
Tomorrow will be .
, % of the Moon is Illuminated

Today's Extremes

State Highs State Lows

Community

WunderPhotos

Upload Photos

1,819,034 photos uploaded!

WunderBlogs® & News

Nearby

Air Quality

  Air Quality AQ Index Pollutant
Not available.

Snow Depth

Station Depth Elevation

Earthquake Activity

City Distance Mag. Time & Date
Minimum magnitude displayed is 2.5.

Coastal Water Temperatures

Place Temperature

Stations

Nearby Weather Stations

Station Location Temp. Windchill Dew Point Humidity Wind Precip. Elev Updated Type
                   
Tornado Watch
Statement as of 5:43 PM CDT on May 06, 2015

Tornado Watch 134 remains in effect until 900 PM CDT for the
following locations

NE
. Nebraska counties included are

Adams Buffalo Clay
Fillmore Franklin gage
Greeley Hall Hamilton
Howard Jefferson Kearney
Lancaster Merrick Nance
Nuckolls Polk Saline
Seward Sherman Thayer
valley Webster York